Kaltag, AK

12:33 PM AKDT on July 23, 2014 (GMT -0800)
Kaltag (PAKV) Elev 200 ft | 64.32 °N, 158.74 °W | Change Station

Current weather conditions updated 40 minutes ago

Light Rain
Light Rain
48 °F
Feels Like 48 °F
N
6
Wind Variable Wind from SSW

Today is forecast to be Cooler than yesterday. Showers possible.

Today
High -- | Low -- °F
--% Chance of Precip.
Yesterday
High -- | Low -- °F
Precip. -- in
5:11 AM 0:08 AM
Waning Crescent, 9% visible
Pressure 29.80 in
Visibility 9.0 miles
Clouds Overcast 6500 ft
Dew Point 45 °F
Humidity 89%
Rainfall 0.14 in
Snow Depth Not available.
UV 1 out of 12
Pollen Not available.
Air Quality Not available.
Flu Activity Not available.
METAR PAKV 231953Z AUTO 20005KT 9SM -RA OVC065 09/07 A2979 RMK AO1 SLP089 P0001 T00890072 TSNO

More Conditions Fewer Conditions

Pressure 29.80 in
Visibility 9.0 miles
Clouds Overcast 6500 ft
Dew Point 45 °F
Humidity 89%
Rainfall 0.14 in
Snow Depth Not available.
UV 1 out of 12
Pollen Not available.
Air Quality Not available.
Flu Activity Not available.
METAR PAKV 231953Z AUTO 20005KT 9SM -RA OVC065 09/07 A2979 RMK AO1 SLP089 P0001 T00890072 TSNO

More Conditions Fewer Conditions

10-Day Weather Forecast

Almanac

Astronomy

Jul. 23, 2014 Rise Set
Actual Time 5:11 AM AKDT 12:08 AM AKDT
Civil Twilight 3:13 AM AKDT 2:08 AM AKDT
Nautical Twilight Sun does not rise Sun does not rise
Astronomical Twilight Sun does not rise Sun does not rise
Moon 2:55 AM AKDT 9:31 PM AKDT
Length of Visible Light 22h 55m
Length of Day
18h 57m
Tomorrow will be 6m 28s shorter.
Waning Crescent, 9% of the Moon is Illuminated
Today
Waning Crescent
Jul 26
New
Aug 3
First Quarter
Aug 10
Full
Aug 17
Last Quarter

Today's Extremes

State Highs State Lows

Community

WunderPhotos

Upload Photos

1,736,757 photos uploaded!

Nearby

Snow Depth

Station Depth Elevation
Rocky Point 2 in 500 ft
Gobblers Knob 0 in 2030 ft
Susitna Valley High 1 in 375 ft
Coldfoot 1 in 1040 ft
Point Mackenzie 1 in 200 ft

Earthquake Activity

City Distance Mag. Time & Date
No recent earthquake activity has been reported nearby.
Minimum magnitude displayed is 2.5.

Coastal Water Temperatures

Place Temperature
No Stations Reporting

Nearby Weather Stations

Station Location Temp. Windchill Dew Point Humidity Wind Precip. Elev Updated Type
RAWS KAIYUH AK, Kaltag, AK 49 °F 45 °F 46 °F 89% SSW  at  9 mph 0.00 in / hr 109 ft 11:21 AM AKDT MADIS

Show More Stations Show Fewer Stations